sensor_id;sensor_type;location;lat;lon;timestamp;pressure;altitude;pressure_sealevel;temperature
69552;BMP280;63774;45.292;11.784;2023-07-29T00:01:01;101584.38;;;27.67
69552;BMP280;63774;45.292;11.784;2023-07-29T00:03:27;101583.67;;;27.66
69552;BMP280;63774;45.292;11.784;2023-07-29T00:05:55;101583.21;;;27.67
69552;BMP280;63774;45.292;11.784;2023-07-29T00:08:20;101578.29;;;27.68
69552;BMP280;63774;45.292;11.784;2023-07-29T00:10:45;101580.19;;;27.68
69552;BMP280;63774;45.292;11.784;2023-07-29T00:13:11;101580.55;;;27.67
69552;BMP280;63774;45.292;11.784;2023-07-29T00:15:36;101581.88;;;27.68
69552;BMP280;63774;45.292;11.784;2023-07-29T00:18:02;101587.89;;;27.68
69552;BMP280;63774;45.292;11.784;2023-07-29T00:20:27;101586.75;;;27.68
69552;BMP280;63774;45.292;11.784;2023-07-29T00:22:53;101585.52;;;27.67
69552;BMP280;63774;45.292;11.784;2023-07-29T00:25:20;101585.54;;;27.67
69552;BMP280;63774;45.292;11.784;2023-07-29T00:27:45;101580.70;;;27.66
69552;BMP280;63774;45.292;11.784;2023-07-29T00:30:11;101576.02;;;27.61
69552;BMP280;63774;45.292;11.784;2023-07-29T00:32:36;101574.48;;;27.57
69552;BMP280;63774;45.292;11.784;2023-07-29T00:35:02;101574.56;;;27.54
69552;BMP280;63774;45.292;11.784;2023-07-29T00:37:29;101576.41;;;27.53
69552;BMP280;63774;45.292;11.784;2023-07-29T00:39:55;101575.20;;;27.51
69552;BMP280;63774;45.292;11.784;2023-07-29T00:42:20;101579.25;;;27.46
69552;BMP280;63774;45.292;11.784;2023-07-29T00:44:46;101577.80;;;27.41
69552;BMP280;63774;45.292;11.784;2023-07-29T00:47:12;101579.66;;;27.40
69552;BMP280;63774;45.292;11.784;2023-07-29T00:49:40;101580.48;;;27.41
69552;BMP280;63774;45.292;11.784;2023-07-29T00:52:06;101581.38;;;27.39
69552;BMP280;63774;45.292;11.784;2023-07-29T00:54:31;101581.97;;;27.39
69552;BMP280;63774;45.292;11.784;2023-07-29T00:56:57;101581.75;;;27.38
69552;BMP280;63774;45.292;11.784;2023-07-29T00:59:22;101582.47;;;27.37
69552;BMP280;63774;45.292;11.784;2023-07-29T01:01:48;101579.49;;;27.33
69552;BMP280;63774;45.292;11.784;2023-07-29T01:04:13;101578.21;;;27.30
69552;BMP280;63774;45.292;11.784;2023-07-29T01:09:30;101575.64;;;27.38
69552;BMP280;63774;45.292;11.784;2023-07-29T01:12:31;101576.30;;;27.40
69552;BMP280;63774;45.292;11.784;2023-07-29T01:17:40;101576.84;;;27.43
69552;BMP280;63774;45.292;11.784;2023-07-29T01:20:08;101577.72;;;27.41
69552;BMP280;63774;45.292;11.784;2023-07-29T01:22:43;101576.89;;;27.44
69552;BMP280;63774;45.292;11.784;2023-07-29T01:25:09;101571.77;;;27.44
69552;BMP280;63774;45.292;11.784;2023-07-29T01:27:34;101569.64;;;27.41
69552;BMP280;63774;45.292;11.784;2023-07-29T01:30:00;101565.21;;;27.37
69552;BMP280;63774;45.292;11.784;2023-07-29T01:35:18;101561.00;;;27.32
69552;BMP280;63774;45.292;11.784;2023-07-29T01:37:51;101561.54;;;27.34
69552;BMP280;63774;45.292;11.784;2023-07-29T01:40:18;101560.02;;;27.30
69552;BMP280;63774;45.292;11.784;2023-07-29T01:42:44;101559.08;;;27.27
69552;BMP280;63774;45.292;11.784;2023-07-29T01:45:11;101564.09;;;27.20
69552;BMP280;63774;45.292;11.784;2023-07-29T01:47:36;101561.23;;;27.22
69552;BMP280;63774;45.292;11.784;2023-07-29T01:50:06;101561.72;;;27.18
69552;BMP280;63774;45.292;11.784;2023-07-29T01:52:31;101559.27;;;27.15
69552;BMP280;63774;45.292;11.784;2023-07-29T01:54:57;101561.58;;;27.14
69552;BMP280;63774;45.292;11.784;2023-07-29T01:57:22;101561.53;;;27.14
69552;BMP280;63774;45.292;11.784;2023-07-29T01:59:48;101563.38;;;27.13
69552;BMP280;63774;45.292;11.784;2023-07-29T02:02:13;101563.43;;;27.08
69552;BMP280;63774;45.292;11.784;2023-07-29T02:04:38;101565.08;;;27.06
69552;BMP280;63774;45.292;11.784;2023-07-29T02:07:04;101567.18;;;27.04
69552;BMP280;63774;45.292;11.784;2023-07-29T02:09:29;101567.98;;;27.10
69552;BMP280;63774;45.292;11.784;2023-07-29T02:11:56;101564.15;;;27.06
69552;BMP280;63774;45.292;11.784;2023-07-29T02:14:22;101568.35;;;27.07
69552;BMP280;63774;45.292;11.784;2023-07-29T02:16:48;101572.60;;;27.08
69552;BMP280;63774;45.292;11.784;2023-07-29T02:19:14;101574.17;;;27.08
69552;BMP280;63774;45.292;11.784;2023-07-29T02:21:40;101577.65;;;27.05
69552;BMP280;63774;45.292;11.784;2023-07-29T02:24:05;101584.52;;;27.05
69552;BMP280;63774;45.292;11.784;2023-07-29T02:26:31;101581.41;;;27.00
69552;BMP280;63774;45.292;11.784;2023-07-29T02:28:56;101578.45;;;26.99
69552;BMP280;63774;45.292;11.784;2023-07-29T02:31:23;101579.27;;;26.95
69552;BMP280;63774;45.292;11.784;2023-07-29T02:33:49;101580.48;;;26.97
69552;BMP280;63774;45.292;11.784;2023-07-29T02:36:15;101578.06;;;26.98
69552;BMP280;63774;45.292;11.784;2023-07-29T02:38:41;101574.94;;;26.96
69552;BMP280;63774;45.292;11.784;2023-07-29T02:41:08;101575.46;;;26.95
69552;BMP280;63774;45.292;11.784;2023-07-29T02:43:35;101574.54;;;26.95
69552;BMP280;63774;45.292;11.784;2023-07-29T02:46:01;101576.73;;;26.93
69552;BMP280;63774;45.292;11.784;2023-07-29T02:48:27;101579.80;;;26.95
69552;BMP280;63774;45.292;11.784;2023-07-29T02:50:53;101581.70;;;26.97
69552;BMP280;63774;45.292;11.784;2023-07-29T02:53:19;101586.19;;;26.98
69552;BMP280;63774;45.292;11.784;2023-07-29T02:55:44;101587.75;;;26.97
69552;BMP280;63774;45.292;11.784;2023-07-29T02:58:09;101588.46;;;26.94
69552;BMP280;63774;45.292;11.784;2023-07-29T03:00:35;101589.55;;;26.98
69552;BMP280;63774;45.292;11.784;2023-07-29T03:03:00;101588.45;;;26.99
69552;BMP280;63774;45.292;11.784;2023-07-29T03:05:29;101587.17;;;26.94
69552;BMP280;63774;45.292;11.784;2023-07-29T03:07:54;101584.80;;;26.88
69552;BMP280;63774;45.292;11.784;2023-07-29T03:10:20;101583.19;;;26.87
69552;BMP280;63774;45.292;11.784;2023-07-29T03:12:46;101581.30;;;26.86
69552;BMP280;63774;45.292;11.784;2023-07-29T03:15:12;101578.67;;;26.82
69552;BMP280;63774;45.292;11.784;2023-07-29T03:17:46;101578.29;;;26.84
69552;BMP280;63774;45.292;11.784;2023-07-29T03:20:12;101580.23;;;26.83
69552;BMP280;63774;45.292;11.784;2023-07-29T03:22:37;101583.44;;;26.84
69552;BMP280;63774;45.292;11.784;2023-07-29T03:25:03;101580.60;;;26.85
69552;BMP280;63774;45.292;11.784;2023-07-29T03:27:28;101582.94;;;26.84
69552;BMP280;63774;45.292;11.784;2023-07-29T03:29:53;101586.31;;;26.83
69552;BMP280;63774;45.292;11.784;2023-07-29T03:32:19;101590.61;;;26.79
69552;BMP280;63774;45.292;11.784;2023-07-29T03:34:44;101595.23;;;26.75
69552;BMP280;63774;45.292;11.784;2023-07-29T03:37:09;101597.87;;;26.75
69552;BMP280;63774;45.292;11.784;2023-07-29T03:39:35;101596.94;;;26.77
69552;BMP280;63774;45.292;11.784;2023-07-29T03:42:00;101598.92;;;26.74
69552;BMP280;63774;45.292;11.784;2023-07-29T03:44:26;101601.88;;;26.75
69552;BMP280;63774;45.292;11.784;2023-07-29T03:46:51;101605.24;;;26.75
69552;BMP280;63774;45.292;11.784;2023-07-29T03:49:16;101604.80;;;26.74
69552;BMP280;63774;45.292;11.784;2023-07-29T03:51:42;101606.58;;;26.71
69552;BMP280;63774;45.292;11.784;2023-07-29T03:54:07;101604.85;;;26.69
69552;BMP280;63774;45.292;11.784;2023-07-29T03:56:32;101599.04;;;26.74
69552;BMP280;63774;45.292;11.784;2023-07-29T03:59:04;101594.14;;;26.73
69552;BMP280;63774;45.292;11.784;2023-07-29T04:01:30;101596.02;;;26.74
69552;BMP280;63774;45.292;11.784;2023-07-29T04:03:55;101597.61;;;26.72
69552;BMP280;63774;45.292;11.784;2023-07-29T04:06:21;101604.66;;;26.72
69552;BMP280;63774;45.292;11.784;2023-07-29T04:08:46;101616.77;;;26.72
69552;BMP280;63774;45.292;11.784;2023-07-29T04:11:12;101628.90;;;26.73
69552;BMP280;63774;45.292;11.784;2023-07-29T04:13:37;101633.95;;;26.79
69552;BMP280;63774;45.292;11.784;2023-07-29T04:16:04;101640.37;;;26.80
69552;BMP280;63774;45.292;11.784;2023-07-29T04:18:30;101645.91;;;26.82
69552;BMP280;63774;45.292;11.784;2023-07-29T04:20:55;101646.02;;;26.90
69552;BMP280;63774;45.292;11.784;2023-07-29T04:23:20;101639.41;;;26.91
69552;BMP280;63774;45.292;11.784;2023-07-29T04:25:46;101635.42;;;26.88
69552;BMP280;63774;45.292;11.784;2023-07-29T04:28:11;101638.48;;;26.88
69552;BMP280;63774;45.292;11.784;2023-07-29T04:30:37;101643.80;;;26.88
69552;BMP280;63774;45.292;11.784;2023-07-29T04:33:02;101643.23;;;26.88
69552;BMP280;63774;45.292;11.784;2023-07-29T04:35:28;101649.23;;;26.87
69552;BMP280;63774;45.292;11.784;2023-07-29T04:37:54;101651.36;;;26.86
69552;BMP280;63774;45.292;11.784;2023-07-29T04:40:19;101649.16;;;26.87
69552;BMP280;63774;45.292;11.784;2023-07-29T04:42:45;101650.94;;;26.91
69552;BMP280;63774;45.292;11.784;2023-07-29T04:45:10;101651.33;;;26.92
69552;BMP280;63774;45.292;11.784;2023-07-29T04:47:36;101650.13;;;26.88
69552;BMP280;63774;45.292;11.784;2023-07-29T04:50:01;101650.80;;;26.85
69552;BMP280;63774;45.292;11.784;2023-07-29T04:52:27;101651.19;;;26.89
69552;BMP280;63774;45.292;11.784;2023-07-29T04:54:52;101649.41;;;26.89
69552;BMP280;63774;45.292;11.784;2023-07-29T04:57:18;101651.60;;;26.91
69552;BMP280;63774;45.292;11.784;2023-07-29T04:59:43;101655.84;;;26.88
69552;BMP280;63774;45.292;11.784;2023-07-29T05:02:08;101659.83;;;26.91
69552;BMP280;63774;45.292;11.784;2023-07-29T05:04:34;101658.53;;;26.90
69552;BMP280;63774;45.292;11.784;2023-07-29T05:06:59;101659.47;;;26.90
69552;BMP280;63774;45.292;11.784;2023-07-29T05:09:24;101664.95;;;26.97
69552;BMP280;63774;45.292;11.784;2023-07-29T05:11:51;101672.06;;;26.99
69552;BMP280;63774;45.292;11.784;2023-07-29T05:14:17;101674.41;;;27.00
69552;BMP280;63774;45.292;11.784;2023-07-29T05:16:43;101672.33;;;26.98
69552;BMP280;63774;45.292;11.784;2023-07-29T05:19:09;101672.38;;;26.94
69552;BMP280;63774;45.292;11.784;2023-07-29T05:21:35;101671.17;;;26.96
69552;BMP280;63774;45.292;11.784;2023-07-29T05:24:00;101665.83;;;26.96
69552;BMP280;63774;45.292;11.784;2023-07-29T05:26:25;101660.73;;;27.00
69552;BMP280;63774;45.292;11.784;2023-07-29T05:28:51;101657.55;;;27.00
69552;BMP280;63774;45.292;11.784;2023-07-29T05:31:16;101653.07;;;27.01
69552;BMP280;63774;45.292;11.784;2023-07-29T05:33:43;101650.89;;;27.02
69552;BMP280;63774;45.292;11.784;2023-07-29T05:36:08;101653.96;;;27.04
69552;BMP280;63774;45.292;11.784;2023-07-29T05:38:34;101652.30;;;27.06
69552;BMP280;63774;45.292;11.784;2023-07-29T05:40:59;101652.48;;;27.05
69552;BMP280;63774;45.292;11.784;2023-07-29T05:43:26;101654.00;;;27.05
69552;BMP280;63774;45.292;11.784;2023-07-29T05:45:51;101654.29;;;27.05
69552;BMP280;63774;45.292;11.784;2023-07-29T05:48:17;101655.72;;;27.08
69552;BMP280;63774;45.292;11.784;2023-07-29T05:50:42;101655.23;;;27.07
69552;BMP280;63774;45.292;11.784;2023-07-29T05:53:08;101660.69;;;27.09
69552;BMP280;63774;45.292;11.784;2023-07-29T05:55:34;101661.64;;;27.10
69552;BMP280;63774;45.292;11.784;2023-07-29T05:57:59;101667.74;;;27.12
69552;BMP280;63774;45.292;11.784;2023-07-29T06:00:24;101674.20;;;27.12
69552;BMP280;63774;45.292;11.784;2023-07-29T06:02:50;101676.33;;;27.15
69552;BMP280;63774;45.292;11.784;2023-07-29T06:05:15;101681.90;;;27.18
69552;BMP280;63774;45.292;11.784;2023-07-29T06:07:40;101682.44;;;27.21
69552;BMP280;63774;45.292;11.784;2023-07-29T06:10:09;101683.83;;;27.21
69552;BMP280;63774;45.292;11.784;2023-07-29T06:12:37;101680.64;;;27.21
69552;BMP280;63774;45.292;11.784;2023-07-29T06:15:03;101676.90;;;27.21
69552;BMP280;63774;45.292;11.784;2023-07-29T06:17:28;101678.70;;;27.26
69552;BMP280;63774;45.292;11.784;2023-07-29T06:19:54;101679.36;;;27.25
69552;BMP280;63774;45.292;11.784;2023-07-29T06:22:19;101680.16;;;27.26
69552;BMP280;63774;45.292;11.784;2023-07-29T06:24:45;101682.45;;;27.27
69552;BMP280;63774;45.292;11.784;2023-07-29T06:27:10;101680.24;;;27.31
69552;BMP280;63774;45.292;11.784;2023-07-29T06:29:35;101671.83;;;27.29
69552;BMP280;63774;45.292;11.784;2023-07-29T06:32:01;101673.60;;;27.30
69552;BMP280;63774;45.292;11.784;2023-07-29T06:34:26;101674.21;;;27.31
69552;BMP280;63774;45.292;11.784;2023-07-29T06:36:51;101674.27;;;27.30
69552;BMP280;63774;45.292;11.784;2023-07-29T06:39:17;101679.83;;;27.32
69552;BMP280;63774;45.292;11.784;2023-07-29T06:41:42;101681.79;;;27.32
69552;BMP280;63774;45.292;11.784;2023-07-29T06:44:08;101682.74;;;27.34
69552;BMP280;63774;45.292;11.784;2023-07-29T06:46:33;101685.83;;;27.34
69552;BMP280;63774;45.292;11.784;2023-07-29T06:48:58;101685.76;;;27.33
69552;BMP280;63774;45.292;11.784;2023-07-29T06:51:24;101679.63;;;27.33
69552;BMP280;63774;45.292;11.784;2023-07-29T06:53:49;101677.27;;;27.34
69552;BMP280;63774;45.292;11.784;2023-07-29T06:56:14;101674.92;;;27.33
69552;BMP280;63774;45.292;11.784;2023-07-29T06:58:40;101684.23;;;27.36
69552;BMP280;63774;45.292;11.784;2023-07-29T07:01:05;101690.36;;;27.37
69552;BMP280;63774;45.292;11.784;2023-07-29T07:03:30;101692.32;;;27.37
69552;BMP280;63774;45.292;11.784;2023-07-29T07:05:56;101689.92;;;27.38
69552;BMP280;63774;45.292;11.784;2023-07-29T07:08:21;101686.50;;;27.41
69552;BMP280;63774;45.292;11.784;2023-07-29T07:10:47;101687.99;;;27.41
69552;BMP280;63774;45.292;11.784;2023-07-29T07:13:12;101688.18;;;27.43
69552;BMP280;63774;45.292;11.784;2023-07-29T07:15:38;101690.08;;;27.44
69552;BMP280;63774;45.292;11.784;2023-07-29T07:18:03;101690.83;;;27.44
69552;BMP280;63774;45.292;11.784;2023-07-29T07:20:29;101691.81;;;27.45
69552;BMP280;63774;45.292;11.784;2023-07-29T07:22:54;101690.64;;;27.46
69552;BMP280;63774;45.292;11.784;2023-07-29T07:25:20;101687.70;;;27.47
69552;BMP280;63774;45.292;11.784;2023-07-29T07:27:46;101689.13;;;27.48
69552;BMP280;63774;45.292;11.784;2023-07-29T07:30:11;101691.30;;;27.51
69552;BMP280;63774;45.292;11.784;2023-07-29T07:32:36;101692.54;;;27.50
69552;BMP280;63774;45.292;11.784;2023-07-29T07:35:02;101692.45;;;27.53
69552;BMP280;63774;45.292;11.784;2023-07-29T07:37:28;101690.23;;;27.55
69552;BMP280;63774;45.292;11.784;2023-07-29T07:39:53;101687.79;;;27.55
69552;BMP280;63774;45.292;11.784;2023-07-29T07:42:18;101691.35;;;27.57
69552;BMP280;63774;45.292;11.784;2023-07-29T07:44:44;101682.49;;;27.55
69552;BMP280;63774;45.292;11.784;2023-07-29T07:47:09;101679.79;;;27.57
69552;BMP280;63774;45.292;11.784;2023-07-29T07:49:34;101679.31;;;27.58
69552;BMP280;63774;45.292;11.784;2023-07-29T07:52:00;101681.14;;;27.58
69552;BMP280;63774;45.292;11.784;2023-07-29T07:54:25;101680.53;;;27.59
69552;BMP280;63774;45.292;11.784;2023-07-29T07:56:50;101676.11;;;27.60
69552;BMP280;63774;45.292;11.784;2023-07-29T07:59:16;101672.33;;;27.60
69552;BMP280;63774;45.292;11.784;2023-07-29T08:01:41;101669.66;;;27.60
69552;BMP280;63774;45.292;11.784;2023-07-29T08:04:06;101667.35;;;27.61
69552;BMP280;63774;45.292;11.784;2023-07-29T08:06:32;101668.65;;;27.62
69552;BMP280;63774;45.292;11.784;2023-07-29T08:08:58;101664.83;;;27.62
69552;BMP280;63774;45.292;11.784;2023-07-29T08:11:24;101663.67;;;27.62
69552;BMP280;63774;45.292;11.784;2023-07-29T08:13:49;101662.51;;;27.62
69552;BMP280;63774;45.292;11.784;2023-07-29T08:16:15;101663.17;;;27.63
69552;BMP280;63774;45.292;11.784;2023-07-29T08:18:40;101662.48;;;27.62
69552;BMP280;63774;45.292;11.784;2023-07-29T08:21:05;101661.64;;;27.63
69552;BMP280;63774;45.292;11.784;2023-07-29T08:23:32;101662.31;;;27.65
69552;BMP280;63774;45.292;11.784;2023-07-29T08:26:00;101663.71;;;27.65
69552;BMP280;63774;45.292;11.784;2023-07-29T08:28:37;101664.35;;;27.65
69552;BMP280;63774;45.292;11.784;2023-07-29T08:31:03;101662.16;;;27.67
69552;BMP280;63774;45.292;11.784;2023-07-29T08:33:29;101662.58;;;27.65
69552;BMP280;63774;45.292;11.784;2023-07-29T08:35:54;101662.20;;;27.66
69552;BMP280;63774;45.292;11.784;2023-07-29T08:38:20;101660.46;;;27.66
69552;BMP280;63774;45.292;11.784;2023-07-29T08:40:58;101662.15;;;27.67
69552;BMP280;63774;45.292;11.784;2023-07-29T08:43:29;101655.26;;;27.66
69552;BMP280;63774;45.292;11.784;2023-07-29T08:45:56;101659.36;;;27.66
69552;BMP280;63774;45.292;11.784;2023-07-29T08:48:37;101661.42;;;27.66
69552;BMP280;63774;45.292;11.784;2023-07-29T08:51:05;101658.36;;;27.66
69552;BMP280;63774;45.292;11.784;2023-07-29T08:53:31;101658.44;;;27.67
69552;BMP280;63774;45.292;11.784;2023-07-29T08:55:57;101663.45;;;27.69
69552;BMP280;63774;45.292;11.784;2023-07-29T08:58:23;101666.27;;;27.69
69552;BMP280;63774;45.292;11.784;2023-07-29T09:00:49;101667.33;;;27.70
69552;BMP280;63774;45.292;11.784;2023-07-29T09:03:15;101666.80;;;27.70
69552;BMP280;63774;45.292;11.784;2023-07-29T09:05:40;101667.13;;;27.70
69552;BMP280;63774;45.292;11.784;2023-07-29T09:08:06;101667.66;;;27.70
69552;BMP280;63774;45.292;11.784;2023-07-29T09:10:36;101668.48;;;27.71
69552;BMP280;63774;45.292;11.784;2023-07-29T09:13:03;101668.45;;;27.71
69552;BMP280;63774;45.292;11.784;2023-07-29T09:15:30;101666.98;;;27.70
69552;BMP280;63774;45.292;11.784;2023-07-29T09:17:56;101662.52;;;27.71
69552;BMP280;63774;45.292;11.784;2023-07-29T09:20:28;101661.17;;;27.71
69552;BMP280;63774;45.292;11.784;2023-07-29T09:22:55;101659.39;;;27.72
69552;BMP280;63774;45.292;11.784;2023-07-29T09:25:27;101657.09;;;27.71
69552;BMP280;63774;45.292;11.784;2023-07-29T09:27:53;101655.00;;;27.72
69552;BMP280;63774;45.292;11.784;2023-07-29T09:30:18;101654.42;;;27.72
69552;BMP280;63774;45.292;11.784;2023-07-29T09:32:44;101652.68;;;27.73
69552;BMP280;63774;45.292;11.784;2023-07-29T09:35:11;101650.67;;;27.73
69552;BMP280;63774;45.292;11.784;2023-07-29T09:37:38;101649.77;;;27.73
69552;BMP280;63774;45.292;11.784;2023-07-29T09:40:05;101646.78;;;27.72
69552;BMP280;63774;45.292;11.784;2023-07-29T09:42:32;101650.30;;;27.73
69552;BMP280;63774;45.292;11.784;2023-07-29T09:44:57;101654.48;;;27.73
69552;BMP280;63774;45.292;11.784;2023-07-29T09:47:24;101654.92;;;27.73
69552;BMP280;63774;45.292;11.784;2023-07-29T09:49:51;101655.15;;;27.74
69552;BMP280;63774;45.292;11.784;2023-07-29T09:52:22;101651.30;;;27.74
69552;BMP280;63774;45.292;11.784;2023-07-29T09:54:48;101650.98;;;27.75
69552;BMP280;63774;45.292;11.784;2023-07-29T09:57:14;101648.71;;;27.75
69552;BMP280;63774;45.292;11.784;2023-07-29T09:59:41;101645.56;;;27.75
69552;BMP280;63774;45.292;11.784;2023-07-29T10:02:13;101643.98;;;27.74
69552;BMP280;63774;45.292;11.784;2023-07-29T10:04:45;101643.77;;;27.75
69552;BMP280;63774;45.292;11.784;2023-07-29T10:07:12;101642.70;;;27.75
69552;BMP280;63774;45.292;11.784;2023-07-29T10:09:40;101640.98;;;27.76
69552;BMP280;63774;45.292;11.784;2023-07-29T10:12:06;101639.09;;;27.77
69552;BMP280;63774;45.292;11.784;2023-07-29T10:14:33;101639.69;;;27.76
69552;BMP280;63774;45.292;11.784;2023-07-29T10:17:00;101639.90;;;27.77
69552;BMP280;63774;45.292;11.784;2023-07-29T10:19:26;101638.20;;;27.78
69552;BMP280;63774;45.292;11.784;2023-07-29T10:21:52;101639.41;;;27.78
69552;BMP280;63774;45.292;11.784;2023-07-29T10:24:24;101638.09;;;27.78
69552;BMP280;63774;45.292;11.784;2023-07-29T10:26:58;101635.30;;;27.79
69552;BMP280;63774;45.292;11.784;2023-07-29T10:29:37;101636.02;;;27.79
69552;BMP280;63774;45.292;11.784;2023-07-29T10:32:04;101640.05;;;27.80
69552;BMP280;63774;45.292;11.784;2023-07-29T10:34:31;101641.55;;;27.80
69552;BMP280;63774;45.292;11.784;2023-07-29T10:36:58;101641.73;;;27.80
69552;BMP280;63774;45.292;11.784;2023-07-29T10:39:25;101641.94;;;27.81
69552;BMP280;63774;45.292;11.784;2023-07-29T10:41:55;101637.30;;;27.80
69552;BMP280;63774;45.292;11.784;2023-07-29T10:49:48;101623.09;;;27.83
69552;BMP280;63774;45.292;11.784;2023-07-29T10:52:15;101619.58;;;27.83
69552;BMP280;63774;45.292;11.784;2023-07-29T10:54:48;101615.81;;;27.84
69552;BMP280;63774;45.292;11.784;2023-07-29T10:57:35;101615.90;;;27.85
69552;BMP280;63774;45.292;11.784;2023-07-29T11:00:02;101615.03;;;27.85
69552;BMP280;63774;45.292;11.784;2023-07-29T11:02:31;101615.19;;;27.86
69552;BMP280;63774;45.292;11.784;2023-07-29T11:04:58;101617.60;;;27.89
69552;BMP280;63774;45.292;11.784;2023-07-29T11:07:24;101615.30;;;27.89
69552;BMP280;63774;45.292;11.784;2023-07-29T11:09:55;101616.33;;;27.90
69552;BMP280;63774;45.292;11.784;2023-07-29T11:12:51;101613.61;;;27.90
69552;BMP280;63774;45.292;11.784;2023-07-29T11:15:26;101615.35;;;27.91
69552;BMP280;63774;45.292;11.784;2023-07-29T11:17:55;101611.59;;;27.91
69552;BMP280;63774;45.292;11.784;2023-07-29T11:20:26;101606.15;;;27.91
69552;BMP280;63774;45.292;11.784;2023-07-29T11:22:54;101602.73;;;27.91
69552;BMP280;63774;45.292;11.784;2023-07-29T11:25:22;101600.77;;;27.90
69552;BMP280;63774;45.292;11.784;2023-07-29T11:27:48;101596.80;;;27.89
69552;BMP280;63774;45.292;11.784;2023-07-29T11:30:15;101595.48;;;27.89
69552;BMP280;63774;45.292;11.784;2023-07-29T11:32:42;101592.92;;;27.91
69552;BMP280;63774;45.292;11.784;2023-07-29T11:35:13;101591.79;;;27.91
69552;BMP280;63774;45.292;11.784;2023-07-29T11:37:41;101590.23;;;27.90
69552;BMP280;63774;45.292;11.784;2023-07-29T11:40:07;101587.76;;;27.89
69552;BMP280;63774;45.292;11.784;2023-07-29T11:42:37;101588.31;;;27.91
69552;BMP280;63774;45.292;11.784;2023-07-29T11:45:03;101586.02;;;27.90
69552;BMP280;63774;45.292;11.784;2023-07-29T11:47:31;101583.41;;;27.90
69552;BMP280;63774;45.292;11.784;2023-07-29T11:49:58;101582.93;;;27.92
69552;BMP280;63774;45.292;11.784;2023-07-29T11:52:25;101583.20;;;27.91
69552;BMP280;63774;45.292;11.784;2023-07-29T11:54:53;101584.70;;;27.91
69552;BMP280;63774;45.292;11.784;2023-07-29T11:57:18;101585.36;;;27.92
69552;BMP280;63774;45.292;11.784;2023-07-29T11:59:44;101583.11;;;27.93
69552;BMP280;63774;45.292;11.784;2023-07-29T12:02:13;101579.35;;;27.93
69552;BMP280;63774;45.292;11.784;2023-07-29T12:04:41;101579.39;;;27.94
69552;BMP280;63774;45.292;11.784;2023-07-29T12:07:16;101577.73;;;27.93
69552;BMP280;63774;45.292;11.784;2023-07-29T12:09:42;101577.55;;;27.94
69552;BMP280;63774;45.292;11.784;2023-07-29T12:12:08;101578.98;;;27.95
69552;BMP280;63774;45.292;11.784;2023-07-29T12:14:36;101579.00;;;27.95
69552;BMP280;63774;45.292;11.784;2023-07-29T12:17:03;101579.15;;;27.96
69552;BMP280;63774;45.292;11.784;2023-07-29T12:19:36;101577.64;;;27.97
69552;BMP280;63774;45.292;11.784;2023-07-29T12:22:07;101573.83;;;27.95
69552;BMP280;63774;45.292;11.784;2023-07-29T12:24:35;101570.95;;;27.95
69552;BMP280;63774;45.292;11.784;2023-07-29T12:27:01;101567.70;;;27.96
69552;BMP280;63774;45.292;11.784;2023-07-29T12:29:27;101562.13;;;27.97
69552;BMP280;63774;45.292;11.784;2023-07-29T12:32:02;101564.98;;;27.96
69552;BMP280;63774;45.292;11.784;2023-07-29T12:34:29;101564.17;;;27.98
69552;BMP280;63774;45.292;11.784;2023-07-29T12:36:56;101559.65;;;27.99
69552;BMP280;63774;45.292;11.784;2023-07-29T12:39:30;101557.85;;;28.00
69552;BMP280;63774;45.292;11.784;2023-07-29T12:41:58;101557.14;;;28.00
69552;BMP280;63774;45.292;11.784;2023-07-29T12:44:29;101550.05;;;28.01
69552;BMP280;63774;45.292;11.784;2023-07-29T12:46:54;101558.36;;;28.02
69552;BMP280;63774;45.292;11.784;2023-07-29T12:49:20;101556.91;;;28.03
69552;BMP280;63774;45.292;11.784;2023-07-29T12:51:45;101551.51;;;28.03
69552;BMP280;63774;45.292;11.784;2023-07-29T12:54:11;101551.33;;;28.05
69552;BMP280;63774;45.292;11.784;2023-07-29T12:56:36;101542.02;;;28.05
69552;BMP280;63774;45.292;11.784;2023-07-29T12:59:02;101537.39;;;28.05
69552;BMP280;63774;45.292;11.784;2023-07-29T13:01:28;101537.02;;;28.06
69552;BMP280;63774;45.292;11.784;2023-07-29T13:03:54;101534.27;;;28.07
69552;BMP280;63774;45.292;11.784;2023-07-29T13:06:20;101533.76;;;28.07
69552;BMP280;63774;45.292;11.784;2023-07-29T13:08:47;101530.65;;;28.07
69552;BMP280;63774;45.292;11.784;2023-07-29T13:11:13;101524.48;;;28.07
69552;BMP280;63774;45.292;11.784;2023-07-29T13:13:38;101523.15;;;28.08
69552;BMP280;63774;45.292;11.784;2023-07-29T13:16:04;101518.84;;;28.07
69552;BMP280;63774;45.292;11.784;2023-07-29T13:18:29;101518.30;;;28.07
69552;BMP280;63774;45.292;11.784;2023-07-29T13:20:55;101516.20;;;28.07
69552;BMP280;63774;45.292;11.784;2023-07-29T13:23:21;101512.14;;;28.06
69552;BMP280;63774;45.292;11.784;2023-07-29T13:25:47;101512.60;;;28.06
69552;BMP280;63774;45.292;11.784;2023-07-29T13:28:12;101510.95;;;28.05
69552;BMP280;63774;45.292;11.784;2023-07-29T13:30:39;101515.57;;;28.06
69552;BMP280;63774;45.292;11.784;2023-07-29T13:33:04;101512.05;;;28.06
69552;BMP280;63774;45.292;11.784;2023-07-29T13:35:30;101508.59;;;28.07
69552;BMP280;63774;45.292;11.784;2023-07-29T13:37:56;101503.58;;;28.07
69552;BMP280;63774;45.292;11.784;2023-07-29T13:40:21;101500.77;;;28.07
69552;BMP280;63774;45.292;11.784;2023-07-29T13:42:46;101496.08;;;28.07
69552;BMP280;63774;45.292;11.784;2023-07-29T13:45:12;101497.20;;;28.08
69552;BMP280;63774;45.292;11.784;2023-07-29T13:47:37;101496.47;;;28.08
69552;BMP280;63774;45.292;11.784;2023-07-29T13:50:03;101498.22;;;28.08
69552;BMP280;63774;45.292;11.784;2023-07-29T13:52:29;101497.22;;;28.09
69552;BMP280;63774;45.292;11.784;2023-07-29T13:54:54;101493.33;;;28.09